Time;durP1;ratioP1;P1;durP2;ratioP2;P2;SDS_P1;SDS_P2;PMS_P1;PMS_P2;Temp;Humidity;BMP_temperature;BMP_pressure;BME280_temperature;BME280_humidity;BME280_pressure;Samples;Min_cycle;Max_cycle;Signal;HPM_P1;HPM_P2
2024/04/05 00:01:39;;;;;;;3.53;2.30;;;12.60;99.90;;;;;;5040880;28;20833;-72
2024/04/05 00:04:06;;;;;;;4.18;2.45;;;12.60;99.90;;;;;;5038865;28;20295;-72
2024/04/05 00:06:33;;;;;;;3.58;2.38;;;12.60;99.90;;;;;;5037587;28;20215;-73
2024/04/05 00:08:59;;;;;;;2.45;1.90;;;12.50;99.90;;;;;;5037642;28;20334;-72
2024/04/05 00:11:26;;;;;;;2.33;2.10;;;12.50;99.90;;;;;;5038716;28;21134;-73
2024/04/05 00:13:53;;;;;;;3.50;2.20;;;12.50;99.90;;;;;;5040088;28;20306;-73
2024/04/05 00:16:20;;;;;;;3.65;2.17;;;12.60;99.90;;;;;;5039541;28;20230;-73
2024/04/05 00:18:47;;;;;;;3.72;2.60;;;12.60;99.90;;;;;;5039568;28;20298;-72
2024/04/05 00:21:14;;;;;;;2.90;2.05;;;12.50;99.90;;;;;;5038761;28;20217;-72
2024/04/05 00:23:40;;;;;;;2.28;2.08;;;12.40;99.90;;;;;;5035360;28;20218;-73
2024/04/05 00:26:07;;;;;;;2.33;2.00;;;12.40;99.90;;;;;;5056026;28;20246;-72
2024/04/05 00:28:35;;;;;;;4.72;2.33;;;12.40;99.90;;;;;;5034973;28;20303;-73
2024/04/05 00:31:04;;;;;;;2.53;2.28;;;12.40;99.90;;;;;;5039635;28;20693;-72
2024/04/05 00:33:31;;;;;;;2.28;2.08;;;12.40;99.90;;;;;;5038058;28;20353;-74
2024/04/05 00:35:58;;;;;;;2.53;2.05;;;12.30;99.90;;;;;;5040267;28;20234;-72
2024/04/05 00:38:25;;;;;;;4.22;2.80;;;12.40;99.90;;;;;;5033590;28;20333;-72
2024/04/05 00:40:53;;;;;;;3.05;2.42;;;12.30;99.90;;;;;;5038723;28;20273;-72
2024/04/05 00:43:20;;;;;;;2.30;2.10;;;12.30;99.90;;;;;;5023123;28;20314;-72
2024/04/05 00:45:48;;;;;;;3.10;2.22;;;12.20;99.90;;;;;;5021283;28;20211;-72
2024/04/05 00:48:16;;;;;;;3.15;2.20;;;12.20;99.90;;;;;;5017174;28;20389;-72
2024/04/05 00:50:44;;;;;;;2.83;2.53;;;12.20;99.90;;;;;;5031663;28;20223;-73
2024/04/05 00:53:13;;;;;;;4.68;2.30;;;12.10;99.90;;;;;;5022473;28;20305;-72
2024/04/05 00:55:42;;;;;;;2.00;1.88;;;12.20;99.90;;;;;;5021870;28;20215;-73
2024/04/05 00:58:09;;;;;;;3.13;2.08;;;12.20;99.90;;;;;;5037439;28;20223;-72
2024/04/05 01:00:37;;;;;;;2.80;2.10;;;12.20;99.90;;;;;;5036386;28;20208;-72
2024/04/05 01:03:03;;;;;;;3.00;2.00;;;12.10;99.90;;;;;;5023335;28;20753;-72
2024/04/05 01:05:33;;;;;;;4.28;2.33;;;12.10;99.90;;;;;;5024953;28;20223;-72
2024/04/05 01:07:59;;;;;;;3.22;2.45;;;12.10;99.90;;;;;;5020740;28;20230;-73
2024/04/05 01:10:26;;;;;;;2.83;2.00;;;12.00;99.90;;;;;;5026554;28;20723;-72
2024/04/05 01:12:59;;;;;;;2.92;2.25;;;12.00;99.90;;;;;;5023292;28;20717;-72
2024/04/05 01:15:26;;;;;;;2.78;2.50;;;12.00;99.90;;;;;;5023868;28;20215;-72
2024/04/05 01:17:52;;;;;;;2.47;2.28;;;11.90;99.90;;;;;;5034970;28;20750;-73
2024/04/05 01:20:19;;;;;;;2.10;2.00;;;11.90;99.90;;;;;;5041612;28;20243;-73
2024/04/05 01:22:52;;;;;;;2.67;2.13;;;11.90;99.90;;;;;;5032176;28;20216;-72
2024/04/05 01:25:20;;;;;;;5.20;2.90;;;11.80;99.90;;;;;;5023734;28;20192;-73
2024/04/05 01:27:47;;;;;;;4.05;2.88;;;11.80;99.90;;;;;;5040358;28;20656;-73
2024/04/05 01:30:14;;;;;;;2.60;2.35;;;11.70;99.90;;;;;;5042566;28;20637;-72
2024/04/05 01:32:40;;;;;;;2.60;2.20;;;11.70;99.90;;;;;;5041245;28;20301;-72
2024/04/05 01:35:07;;;;;;;4.38;2.50;;;11.70;99.90;;;;;;5041091;28;20738;-72
2024/04/05 01:37:33;;;;;;;2.25;2.10;;;11.70;99.90;;;;;;5038788;28;20847;-72
2024/04/05 01:40:00;;;;;;;3.10;2.33;;;11.60;99.90;;;;;;5049866;28;20278;-72
2024/04/05 01:42:27;;;;;;;3.53;2.70;;;11.60;99.90;;;;;;5044809;28;20352;-72
2024/04/05 01:44:54;;;;;;;2.35;2.15;;;11.60;99.90;;;;;;5039470;28;20215;-73
2024/04/05 01:47:20;;;;;;;3.70;2.20;;;11.60;99.90;;;;;;5040617;28;20369;-72
2024/04/05 01:49:47;;;;;;;2.90;2.05;;;11.60;99.90;;;;;;5041019;28;20301;-72
2024/04/05 01:52:13;;;;;;;2.38;2.17;;;11.70;99.90;;;;;;5042236;28;20250;-73
2024/04/05 01:54:40;;;;;;;3.33;2.30;;;11.70;99.90;;;;;;5035151;28;20258;-73
2024/04/05 01:57:06;;;;;;;2.13;1.98;;;11.80;99.90;;;;;;5035345;28;20249;-72
2024/04/05 01:59:34;;;;;;;5.13;3.10;;;11.80;99.90;;;;;;5040552;28;20280;-73
2024/04/05 02:02:00;;;;;;;2.58;2.38;;;11.70;99.90;;;;;;5039009;28;20318;-72
2024/04/05 02:04:27;;;;;;;2.97;2.45;;;11.70;99.90;;;;;;5034071;28;20231;-74
2024/04/05 02:06:53;;;;;;;2.53;2.33;;;11.80;99.90;;;;;;5036257;28;20250;-72
2024/04/05 02:09:20;;;;;;;3.15;2.40;;;11.80;99.90;;;;;;5035856;28;20385;-72
2024/04/05 02:11:46;;;;;;;2.53;2.33;;;11.80;99.90;;;;;;5041043;28;20353;-72
2024/04/05 02:14:13;;;;;;;2.97;2.70;;;11.80;99.90;;;;;;5041361;28;20301;-72
2024/04/05 02:16:40;;;;;;;3.63;2.20;;;11.80;99.90;;;;;;5019168;28;20237;-72
2024/04/05 02:19:07;;;;;;;1.92;1.73;;;11.80;99.90;;;;;;5024200;28;20203;-72
2024/04/05 02:21:33;;;;;;;4.38;2.50;;;11.80;99.90;;;;;;5022433;28;20669;-72
2024/04/05 02:24:00;;;;;;;2.55;2.35;;;11.80;99.90;;;;;;5023251;28;20770;-71
2024/04/05 02:26:26;;;;;;;2.10;1.90;;;11.80;99.90;;;;;;5024853;28;20326;-71
2024/04/05 02:28:53;;;;;;;2.40;2.20;;;11.80;99.90;;;;;;5025001;28;20285;-72
2024/04/05 02:31:19;;;;;;;2.85;2.65;;;11.80;99.90;;;;;;5038912;28;23416;-73
2024/04/05 02:33:47;;;;;;;3.38;2.63;;;11.90;99.90;;;;;;5044056;28;20201;-72
2024/04/05 02:36:13;;;;;;;2.15;1.92;;;11.90;99.90;;;;;;5039173;28;20233;-72
2024/04/05 02:38:40;;;;;;;2.80;2.50;;;11.90;99.90;;;;;;5039777;28;20781;-72
2024/04/05 02:41:07;;;;;;;2.92;2.22;;;11.90;99.90;;;;;;5041904;28;20352;-72
2024/04/05 02:43:35;;;;;;;3.42;2.40;;;11.80;99.90;;;;;;5039034;28;20279;-72
2024/04/05 02:46:00;;;;;;;3.13;2.85;;;11.80;99.90;;;;;;5042025;28;20302;-72
2024/04/05 02:48:27;;;;;;;2.72;2.10;;;11.80;99.90;;;;;;5040110;28;20656;-73
2024/04/05 02:50:55;;;;;;;2.55;2.00;;;11.70;99.90;;;;;;5042250;28;20280;-72
2024/04/05 02:53:23;;;;;;;2.92;2.35;;;11.70;99.90;;;;;;5041068;28;20230;-72
2024/04/05 02:55:49;;;;;;;3.05;2.08;;;11.70;99.90;;;;;;5039324;28;20715;-72
2024/04/05 02:58:16;;;;;;;2.88;2.50;;;11.60;99.90;;;;;;5022921;28;20250;-72
2024/04/05 03:00:42;;;;;;;4.50;3.05;;;11.60;99.90;;;;;;5021917;28;20204;-72
2024/04/05 03:03:10;;;;;;;4.25;2.60;;;11.50;99.90;;;;;;5036758;28;20233;-72
2024/04/05 03:05:35;;;;;;;3.40;2.60;;;11.40;99.90;;;;;;5035703;28;20803;-73
2024/04/05 03:08:05;;;;;;;3.13;2.50;;;11.40;99.90;;;;;;5040024;28;20218;-72
2024/04/05 03:10:31;;;;;;;2.55;2.22;;;11.30;99.90;;;;;;5038298;28;20208;-72
2024/04/05 03:12:59;;;;;;;3.35;2.45;;;11.30;99.90;;;;;;5042746;28;20272;-73
2024/04/05 03:15:25;;;;;;;3.33;2.33;;;11.30;99.90;;;;;;5037973;28;20302;-72
2024/04/05 03:17:52;;;;;;;5.00;2.55;;;11.20;99.90;;;;;;5036542;28;20229;-72
2024/04/05 03:20:18;;;;;;;2.97;2.72;;;11.20;99.90;;;;;;5040503;28;20317;-72
2024/04/05 03:22:45;;;;;;;2.63;2.10;;;11.20;99.90;;;;;;5040174;28;20309;-72
2024/04/05 03:25:13;;;;;;;2.42;2.30;;;11.20;99.90;;;;;;5042260;28;20205;-72
2024/04/05 03:27:40;;;;;;;2.60;2.40;;;11.20;99.90;;;;;;5039518;28;20226;-72
2024/04/05 03:30:06;;;;;;;2.70;2.50;;;11.20;99.90;;;;;;5039133;28;20218;-73
2024/04/05 03:32:33;;;;;;;2.33;2.13;;;11.30;99.90;;;;;;5038849;28;20219;-73
2024/04/05 03:35:02;;;;;;;2.10;2.00;;;11.30;99.90;;;;;;5041534;28;20313;-72
2024/04/05 03:37:29;;;;;;;2.58;2.38;;;11.30;99.90;;;;;;5037802;28;20214;-72
2024/04/05 03:39:56;;;;;;;2.80;2.60;;;11.30;99.90;;;;;;5042165;28;20688;-72
2024/04/05 03:42:23;;;;;;;3.03;2.83;;;11.30;99.90;;;;;;5040477;28;20329;-72
2024/04/05 03:44:50;;;;;;;3.22;2.92;;;11.30;99.90;;;;;;5036565;28;20706;-72
2024/04/05 03:47:16;;;;;;;2.65;2.45;;;11.30;99.90;;;;;;5037601;28;20317;-72
2024/04/05 03:49:43;;;;;;;2.53;2.33;;;11.20;99.90;;;;;;5038551;28;20301;-72
2024/04/05 03:52:09;;;;;;;2.70;2.50;;;11.20;99.90;;;;;;5039391;28;20302;-72
2024/04/05 03:54:37;;;;;;;2.60;2.40;;;11.20;99.90;;;;;;5038504;28;20269;-73
2024/04/05 03:57:04;;;;;;;3.22;2.60;;;11.20;99.90;;;;;;5039027;28;20223;-73
2024/04/05 03:59:33;;;;;;;3.20;2.83;;;11.10;99.90;;;;;;5035787;28;20215;-73
2024/04/05 04:01:59;;;;;;;3.38;3.08;;;11.10;99.90;;;;;;5038013;28;20348;-72
2024/04/05 04:04:27;;;;;;;3.97;3.58;;;11.10;99.90;;;;;;5038232;28;20211;-72
2024/04/05 04:06:55;;;;;;;4.47;3.75;;;11.10;99.90;;;;;;5035195;28;20320;-72
2024/04/05 04:09:22;;;;;;;3.28;2.85;;;11.10;99.90;;;;;;5034191;28;20975;-73
2024/04/05 04:11:48;;;;;;;3.35;2.80;;;11.00;99.90;;;;;;5038836;28;20318;-73
2024/04/05 04:14:15;;;;;;;2.88;2.42;;;11.00;99.90;;;;;;5039201;28;20218;-72
2024/04/05 04:16:42;;;;;;;3.22;2.92;;;11.00;99.90;;;;;;5038849;28;20801;-72
2024/04/05 04:19:11;;;;;;;2.90;2.70;;;11.00;99.90;;;;;;5037176;28;22099;-72
2024/04/05 04:21:37;;;;;;;2.83;2.63;;;11.00;99.90;;;;;;5037922;28;20226;-72
2024/04/05 04:24:05;;;;;;;4.25;2.85;;;11.00;99.90;;;;;;5040867;28;20223;-72
2024/04/05 04:26:31;;;;;;;3.85;2.90;;;11.00;99.90;;;;;;5037803;28;20238;-73
2024/04/05 04:28:58;;;;;;;3.00;2.70;;;11.00;99.90;;;;;;5038854;28;20223;-72
2024/04/05 04:31:25;;;;;;;3.50;2.58;;;10.90;99.90;;;;;;5038063;28;20309;-72
2024/04/05 04:33:54;;;;;;;3.38;2.75;;;10.90;99.90;;;;;;5036456;28;20198;-72
2024/04/05 04:36:20;;;;;;;3.00;2.80;;;10.90;99.90;;;;;;5038518;28;20310;-72
2024/04/05 04:38:47;;;;;;;3.28;2.97;;;10.90;99.90;;;;;;5039238;28;20715;-72
2024/04/05 04:41:13;;;;;;;2.60;2.40;;;10.90;99.90;;;;;;5042966;28;20798;-72
2024/04/05 04:43:41;;;;;;;2.55;2.35;;;10.90;99.90;;;;;;5043883;28;20832;-72
2024/04/05 04:46:07;;;;;;;4.03;2.97;;;10.90;99.90;;;;;;5041344;28;20656;-71
2024/04/05 04:48:34;;;;;;;3.42;3.15;;;10.90;99.90;;;;;;5041981;28;20227;-71
2024/04/05 04:51:03;;;;;;;3.70;3.20;;;10.80;99.90;;;;;;5043404;28;20317;-71
2024/04/05 04:53:30;;;;;;;4.18;3.78;;;10.80;99.90;;;;;;5042620;28;20239;-71
2024/04/05 04:55:56;;;;;;;3.60;3.30;;;10.80;99.90;;;;;;5045137;28;20300;-71
2024/04/05 04:58:23;;;;;;;3.75;3.28;;;10.80;99.90;;;;;;5040984;28;20305;-72
2024/04/05 05:00:49;;;;;;;3.67;3.38;;;10.80;99.90;;;;;;5042089;28;20740;-72
2024/04/05 05:03:16;;;;;;;3.10;2.90;;;10.80;99.90;;;;;;5040859;28;20272;-71
2024/04/05 05:05:43;;;;;;;3.55;2.70;;;10.80;99.90;;;;;;5040693;28;20310;-72
2024/04/05 05:08:12;;;;;;;2.88;2.67;;;10.80;99.90;;;;;;5043961;28;20244;-72
2024/04/05 05:10:38;;;;;;;2.75;2.55;;;10.80;99.90;;;;;;5044758;28;20227;-72
2024/04/05 05:13:06;;;;;;;2.78;2.58;;;10.80;99.90;;;;;;5038552;28;20223;-73
2024/04/05 05:15:32;;;;;;;2.75;2.38;;;10.90;99.90;;;;;;5042549;28;20230;-73
2024/04/05 05:17:59;;;;;;;3.20;2.55;;;10.90;99.90;;;;;;5041897;28;20229;-72
2024/04/05 05:20:26;;;;;;;2.67;2.47;;;10.90;99.90;;;;;;5044045;28;20302;-72
2024/04/05 05:22:53;;;;;;;3.20;2.45;;;11.00;99.90;;;;;;5040833;28;20865;-72
2024/04/05 05:25:21;;;;;;;2.45;2.25;;;11.00;99.90;;;;;;5044270;28;20530;-72
2024/04/05 05:27:48;;;;;;;3.15;2.75;;;11.00;99.90;;;;;;5041126;28;20280;-72
2024/04/05 05:30:14;;;;;;;2.63;2.35;;;11.10;99.90;;;;;;5043163;28;20305;-72
2024/04/05 05:32:41;;;;;;;4.90;3.15;;;11.00;99.90;;;;;;5040254;28;20230;-72
2024/04/05 05:35:07;;;;;;;3.75;2.53;;;11.10;99.90;;;;;;5041230;28;20302;-72
2024/04/05 05:37:35;;;;;;;3.03;2.67;;;11.10;99.90;;;;;;5037534;28;20215;-73
2024/04/05 05:40:01;;;;;;;2.80;2.28;;;11.10;99.90;;;;;;5038796;28;20302;-73
2024/04/05 05:42:29;;;;;;;4.15;2.67;;;11.10;99.90;;;;;;5040320;28;20699;-72
2024/04/05 05:44:56;;;;;;;2.22;2.03;;;11.20;99.90;;;;;;5039924;28;20787;-73
2024/04/05 05:47:23;;;;;;;2.65;2.45;;;11.20;99.90;;;;;;5039327;28;20237;-72
2024/04/05 05:49:49;;;;;;;2.63;2.40;;;11.30;99.90;;;;;;5038911;28;20314;-73
2024/04/05 05:52:16;;;;;;;3.30;1.98;;;11.30;99.90;;;;;;5038716;28;20322;-72
2024/04/05 05:54:42;;;;;;;3.40;2.35;;;11.30;99.90;;;;;;5044345;28;20740;-72
2024/04/05 05:57:09;;;;;;;3.05;2.30;;;11.40;99.90;;;;;;5041377;28;20221;-72
2024/04/05 05:59:37;;;;;;;2.88;2.53;;;11.40;99.90;;;;;;5038628;28;20353;-73
2024/04/05 06:02:04;;;;;;;2.50;2.30;;;11.40;99.90;;;;;;5038033;28;20688;-73
2024/04/05 06:04:30;;;;;;;2.50;2.30;;;11.40;99.90;;;;;;5036348;28;20292;-72
2024/04/05 06:06:57;;;;;;;4.57;3.25;;;11.40;99.90;;;;;;5033088;28;20720;-73
2024/04/05 06:09:24;;;;;;;2.90;2.55;;;11.40;99.90;;;;;;5035690;28;20305;-73
2024/04/05 06:11:51;;;;;;;3.47;2.67;;;11.40;99.90;;;;;;5036487;28;20222;-72
2024/04/05 06:14:16;;;;;;;3.83;2.60;;;11.40;99.90;;;;;;5038987;28;20231;-74
2024/04/05 06:16:45;;;;;;;5.90;4.40;;;11.50;99.90;;;;;;5036591;28;20222;-74
2024/04/05 06:19:11;;;;;;;8.43;5.03;;;11.50;99.90;;;;;;5039284;28;20660;-72
2024/04/05 06:21:38;;;;;;;6.63;5.30;;;11.60;99.90;;;;;;5036643;28;20729;-74
2024/04/05 06:24:05;;;;;;;7.13;4.90;;;11.60;99.90;;;;;;5037849;28;20417;-72
2024/04/05 06:26:35;;;;;;;5.10;4.07;;;11.70;99.90;;;;;;5041274;28;20305;-72
2024/04/05 06:29:01;;;;;;;4.82;4.30;;;11.70;99.90;;;;;;5039725;28;20230;-72
2024/04/05 06:31:28;;;;;;;5.55;3.95;;;11.80;99.90;;;;;;5037126;28;20238;-74
2024/04/05 06:33:55;;;;;;;5.13;4.07;;;11.90;99.90;;;;;;5037324;28;20302;-73
2024/04/05 06:36:22;;;;;;;4.03;3.50;;;12.10;99.90;;;;;;5037210;28;20231;-72
2024/04/05 06:38:48;;;;;;;3.55;3.22;;;12.20;99.90;;;;;;5036874;28;20874;-72
2024/04/05 06:41:16;;;;;;;5.68;3.67;;;12.60;99.90;;;;;;5037494;28;20218;-74
2024/04/05 06:43:41;;;;;;;4.85;4.40;;;12.80;99.90;;;;;;5037181;28;20226;-73
2024/04/05 06:46:08;;;;;;;6.20;3.78;;;13.00;99.90;;;;;;5037078;28;20216;-73
2024/04/05 06:48:35;;;;;;;7.10;3.40;;;13.30;99.90;;;;;;5037139;28;20302;-73
2024/04/05 06:51:11;;;;;;;5.53;3.58;;;13.40;99.90;;;;;;5036890;28;20227;-73
2024/04/05 06:53:37;;;;;;;4.25;3.30;;;13.40;99.90;;;;;;5035861;28;20317;-73
2024/04/05 06:56:06;;;;;;;4.93;3.88;;;13.50;99.90;;;;;;5034137;28;20928;-72
2024/04/05 06:58:32;;;;;;;7.32;3.38;;;13.60;99.90;;;;;;5038830;28;20215;-72
2024/04/05 07:01:01;;;;;;;5.13;3.42;;;13.80;99.90;;;;;;5037444;28;20264;-72
2024/04/05 07:03:27;;;;;;;3.78;3.17;;;13.90;99.90;;;;;;5036929;28;20227;-73
2024/04/05 07:06:00;;;;;;;7.32;3.75;;;13.70;99.90;;;;;;5023035;28;20508;-72
2024/04/05 07:08:29;;;;;;;4.90;3.50;;;13.90;99.90;;;;;;5035781;28;20226;-73
2024/04/05 07:10:56;;;;;;;5.50;4.07;;;14.40;99.90;;;;;;5036807;28;20219;-73
2024/04/05 07:13:22;;;;;;;5.55;3.90;;;14.80;99.90;;;;;;5037938;28;20314;-73
2024/04/05 07:15:49;;;;;;;7.15;4.05;;;15.30;99.90;;;;;;5039104;28;20199;-73
2024/04/05 07:18:16;;;;;;;5.53;3.78;;;15.80;99.90;;;;;;5035619;28;20708;-73
2024/04/05 07:20:43;;;;;;;5.57;3.80;;;16.00;99.90;;;;;;5035161;28;21056;-73
2024/04/05 07:23:09;;;;;;;5.40;3.80;;;16.10;99.90;;;;;;5037266;28;20852;-72
2024/04/05 07:25:37;;;;;;;5.97;3.90;;;16.30;99.90;;;;;;5033385;28;20937;-72
2024/04/05 07:28:04;;;;;;;5.70;3.92;;;16.30;99.90;;;;;;5035465;28;21473;-73
2024/04/05 07:30:32;;;;;;;6.00;4.05;;;16.20;99.90;;;;;;5037200;28;20218;-74
2024/04/05 07:33:00;;;;;;;5.03;4.32;;;16.30;99.90;;;;;;5036716;28;20253;-73
2024/04/05 07:35:27;;;;;;;6.63;3.83;;;16.50;99.90;;;;;;5033199;28;20300;-75
2024/04/05 07:37:53;;;;;;;5.85;4.00;;;16.70;99.90;;;;;;5034433;28;20233;-74
2024/04/05 07:40:21;;;;;;;6.85;3.70;;;16.90;99.90;;;;;;5036731;28;20195;-74
2024/04/05 07:42:50;;;;;;;4.95;3.22;;;17.00;99.90;;;;;;5034469;28;20219;-74
2024/04/05 07:45:17;;;;;;;4.97;3.55;;;17.00;99.90;;;;;;5032238;28;20695;-75
2024/04/05 07:47:46;;;;;;;4.50;3.67;;;17.10;99.90;;;;;;5034336;28;20313;-74
2024/04/05 07:50:13;;;;;;;5.43;4.32;;;17.20;99.90;;;;;;5034540;28;20222;-75
2024/04/05 07:52:39;;;;;;;5.18;3.63;;;17.10;99.90;;;;;;5035224;28;20317;-74
2024/04/05 07:55:06;;;;;;;5.00;3.67;;;17.00;99.90;;;;;;5034887;28;20203;-74
2024/04/05 07:57:32;;;;;;;5.85;3.65;;;16.60;99.90;;;;;;5021182;28;20242;-73
2024/04/05 08:00:01;;;;;;;6.53;4.63;;;16.60;99.90;;;;;;5031772;28;22097;-73
2024/04/05 08:02:29;;;;;;;4.93;3.55;;;16.70;99.90;;;;;;5032600;28;20310;-73
2024/04/05 08:04:58;;;;;;;8.90;3.40;;;16.80;99.90;;;;;;5032296;28;20833;-73
2024/04/05 08:07:24;;;;;;;9.10;3.20;;;17.20;99.90;;;;;;5034993;28;20231;-73
2024/04/05 08:09:54;;;;;;;4.88;3.35;;;17.70;99.90;;;;;;5034935;28;20187;-74
2024/04/05 08:12:21;;;;;;;6.28;3.70;;;17.90;99.90;;;;;;5033533;28;20226;-74
2024/04/05 08:14:50;;;;;;;10.70;3.47;;;18.10;99.90;;;;;;5036236;28;20291;-73
2024/04/05 08:17:17;;;;;;;7.35;3.67;;;18.10;99.90;;;;;;5031311;28;20314;-73
2024/04/05 08:19:44;;;;;;;7.35;3.88;;;18.00;99.90;;;;;;5029899;28;20268;-73
2024/04/05 08:22:11;;;;;;;6.72;3.85;;;18.00;99.90;;;;;;5034414;28;20245;-72
2024/04/05 08:24:38;;;;;;;7.53;3.92;;;17.90;99.90;;;;;;5034893;28;20213;-73
2024/04/05 08:27:04;;;;;;;7.88;3.40;;;18.10;99.90;;;;;;5035095;28;20433;-73
2024/04/05 08:29:31;;;;;;;11.15;4.35;;;18.30;99.90;;;;;;5034278;28;20712;-73
2024/04/05 08:31:57;;;;;;;4.25;3.25;;;18.40;99.90;;;;;;5029407;28;20309;-74
2024/04/05 08:34:25;;;;;;;5.65;3.70;;;18.20;99.90;;;;;;5035039;28;20199;-75
2024/04/05 08:36:51;;;;;;;6.15;3.72;;;18.50;99.90;;;;;;5032588;28;21014;-74
2024/04/05 08:39:18;;;;;;;4.22;3.28;;;18.60;99.90;;;;;;5036343;28;20294;-74
2024/04/05 08:41:46;;;;;;;4.30;2.80;;;18.40;99.90;;;;;;5033209;28;20309;-75
2024/04/05 08:44:13;;;;;;;3.30;3.00;;;18.40;99.90;;;;;;5048913;28;20223;-74
2024/04/05 08:46:40;;;;;;;8.07;3.83;;;18.20;99.90;;;;;;5032622;28;20309;-74
2024/04/05 08:49:07;;;;;;;7.20;2.92;;;18.20;99.90;;;;;;5034946;28;21076;-73
2024/04/05 08:51:37;;;;;;;4.43;2.53;;;18.10;99.90;;;;;;5030024;28;20866;-74
2024/04/05 08:54:04;;;;;;;5.30;3.25;;;18.40;99.90;;;;;;5028351;28;20755;-74
2024/04/05 08:56:31;;;;;;;6.55;2.70;;;18.70;99.90;;;;;;5030599;28;20350;-74
2024/04/05 08:59:01;;;;;;;3.33;2.70;;;18.90;99.90;;;;;;5034836;28;20688;-74
2024/04/05 09:01:27;;;;;;;5.57;3.35;;;19.00;99.90;;;;;;5033169;28;20218;-74
2024/04/05 09:03:55;;;;;;;3.08;2.60;;;18.80;99.90;;;;;;5038085;28;20253;-74
2024/04/05 09:06:21;;;;;;;3.83;2.90;;;18.90;99.90;;;;;;5034354;28;20282;-74
2024/04/05 09:08:50;;;;;;;5.13;2.70;;;19.10;99.90;;;;;;5034282;28;20217;-74
2024/04/05 09:11:21;;;;;;;7.40;2.90;;;19.40;99.90;;;;;;5033368;28;20220;-74
2024/04/05 09:13:57;;;;;;;5.03;3.15;;;19.30;99.90;;;;;;5034328;28;20214;-73
2024/04/05 09:16:24;;;;;;;6.72;3.08;;;19.50;99.90;;;;;;5028520;28;20602;-73
2024/04/05 09:18:51;;;;;;;5.57;2.67;;;19.60;99.90;;;;;;5031230;28;20281;-72
2024/04/05 09:21:17;;;;;;;7.13;3.10;;;19.40;99.90;;;;;;5036831;28;20219;-72
2024/04/05 09:23:46;;;;;;;6.55;2.88;;;19.30;99.90;;;;;;5031704;28;20674;-73
2024/04/05 09:26:18;;;;;;;5.75;3.00;;;19.30;99.90;;;;;;5034278;28;20262;-72
2024/04/05 09:28:46;;;;;;;4.68;2.47;;;19.60;99.90;;;;;;5038439;28;20237;-73
2024/04/05 09:31:18;;;;;;;4.85;2.40;;;19.90;99.90;;;;;;5036492;28;20683;-72
2024/04/05 09:33:45;;;;;;;5.80;2.40;;;20.00;99.90;;;;;;5039496;28;20215;-72
2024/04/05 09:36:17;;;;;;;4.43;3.03;;;20.20;99.90;;;;;;5034302;28;20222;-73
2024/04/05 09:38:45;;;;;;;5.25;3.15;;;20.10;99.90;;;;;;5038629;28;20210;-73
2024/04/05 09:41:14;;;;;;;7.60;3.03;;;20.10;99.90;;;;;;5036928;28;20298;-73
2024/04/05 09:43:43;;;;;;;4.20;2.60;;;20.20;99.90;;;;;;5033730;28;20308;-73
2024/04/05 09:46:11;;;;;;;9.52;3.10;;;20.20;99.90;;;;;;5036267;28;20305;-74
2024/04/05 09:48:39;;;;;;;5.90;2.90;;;20.30;99.90;;;;;;5035664;28;20214;-72
2024/04/05 09:51:13;;;;;;;5.43;2.80;;;20.30;99.90;;;;;;5033235;28;20308;-73
2024/04/05 09:53:45;;;;;;;4.50;2.63;;;20.50;99.90;;;;;;5035583;28;20309;-72
2024/04/05 09:56:16;;;;;;;6.20;2.92;;;20.50;99.90;;;;;;5038135;28;20235;-73
2024/04/05 09:58:44;;;;;;;7.72;2.72;;;20.70;99.90;;;;;;5034540;28;20377;-73
2024/04/05 10:01:10;;;;;;;5.22;2.50;;;20.50;99.90;;;;;;5040469;28;20211;-73
2024/04/05 10:03:39;;;;;;;8.57;2.80;;;20.40;99.90;;;;;;5036053;28;20218;-73
2024/04/05 10:06:15;;;;;;;4.00;2.22;;;20.50;99.90;;;;;;5037166;28;20730;-73
2024/04/05 10:08:42;;;;;;;7.55;2.58;;;20.70;99.90;;;;;;5035500;28;20222;-73
2024/04/05 10:11:13;;;;;;;5.25;2.70;;;21.00;99.90;;;;;;5036250;28;20615;-74
2024/04/05 10:13:41;;;;;;;5.65;2.53;;;21.00;99.90;;;;;;5038545;28;20223;-73
2024/04/05 10:16:10;;;;;;;5.00;2.70;;;21.10;99.90;;;;;;5037866;28;20863;-74
2024/04/05 10:18:42;;;;;;;5.18;2.58;;;21.30;99.90;;;;;;5035846;28;20215;-72
2024/04/05 10:21:09;;;;;;;5.13;2.65;;;21.50;99.90;;;;;;5036805;28;20222;-73
2024/04/05 10:23:37;;;;;;;4.45;2.42;;;21.40;99.90;;;;;;5037333;28;20222;-72
2024/04/05 10:26:07;;;;;;;7.10;2.67;;;21.20;99.90;;;;;;5052227;28;20855;-73
2024/04/05 10:28:35;;;;;;;4.03;2.25;;;21.40;99.90;;;;;;5040090;28;20229;-73
2024/04/05 10:31:01;;;;;;;5.00;2.03;;;21.50;99.90;;;;;;5036429;28;20242;-73
2024/04/05 10:33:28;;;;;;;4.00;2.28;;;21.40;99.90;;;;;;5032931;28;20352;-73
2024/04/05 10:35:57;;;;;;;5.10;2.30;;;21.40;99.90;;;;;;5037661;28;20950;-72
2024/04/05 10:38:24;;;;;;;5.25;2.97;;;21.30;99.90;;;;;;5019818;28;20226;-73
2024/04/05 10:40:57;;;;;;;5.32;2.65;;;21.40;99.90;;;;;;5019230;28;20755;-73
2024/04/05 10:43:25;;;;;;;5.65;2.55;;;21.40;99.90;;;;;;5032840;28;20634;-73
2024/04/05 10:45:54;;;;;;;5.78;2.60;;;21.20;99.90;;;;;;5034373;28;20298;-73
2024/04/05 10:48:21;;;;;;;4.88;2.50;;;21.30;99.90;;;;;;5034780;28;20255;-72
2024/04/05 10:50:48;;;;;;;4.55;2.28;;;21.10;99.90;;;;;;5033768;28;20226;-72
2024/04/05 10:53:17;;;;;;;6.93;2.97;;;21.10;99.90;;;;;;5035196;28;20230;-73
2024/04/05 10:55:44;;;;;;;7.03;2.70;;;21.10;99.90;;;;;;5033539;28;20257;-74
2024/04/05 10:58:12;;;;;;;13.73;3.22;;;21.10;99.90;;;;;;5041105;28;20215;-73
2024/04/05 11:00:38;;;;;;;8.70;2.60;;;21.00;99.90;;;;;;5049198;28;20643;-73
2024/04/05 11:03:08;;;;;;;4.13;2.40;;;21.00;99.90;;;;;;5040304;28;20225;-74
2024/04/05 11:05:34;;;;;;;3.85;2.65;;;21.20;99.90;;;;;;5038802;28;20292;-73
2024/04/05 11:08:05;;;;;;;4.20;2.90;;;21.30;99.90;;;;;;5036678;28;20234;-71
2024/04/05 11:10:32;;;;;;;7.28;3.35;;;21.40;99.90;;;;;;5034436;28;20206;-72
2024/04/05 11:13:00;;;;;;;4.80;2.53;;;21.30;99.90;;;;;;5034329;28;20321;-72
2024/04/05 11:15:26;;;;;;;2.72;2.08;;;21.30;99.90;;;;;;5036561;28;20258;-72
2024/04/05 11:18:01;;;;;;;3.47;2.15;;;21.50;99.90;;;;;;5032364;28;20231;-72
2024/04/05 11:20:30;;;;;;;7.75;2.75;;;21.70;99.90;;;;;;5035844;28;20295;-74
2024/04/05 11:23:04;;;;;;;4.47;2.22;;;21.60;99.90;;;;;;5036792;28;20310;-73
2024/04/05 11:25:31;;;;;;;3.17;2.15;;;21.50;99.90;;;;;;5036984;28;20319;-73
2024/04/05 11:27:58;;;;;;;4.07;2.45;;;21.40;99.90;;;;;;5031356;28;20245;-73
2024/04/05 11:30:24;;;;;;;4.15;2.20;;;21.50;99.90;;;;;;5036550;28;20233;-73
2024/04/05 11:32:51;;;;;;;6.93;2.78;;;21.30;99.90;;;;;;5034699;28;20311;-73
2024/04/05 11:35:18;;;;;;;3.63;2.10;;;21.20;99.90;;;;;;5034533;28;20401;-73
2024/04/05 11:37:47;;;;;;;5.72;2.47;;;21.20;99.90;;;;;;5033399;28;20218;-72
2024/04/05 11:40:14;;;;;;;3.00;2.25;;;21.10;99.90;;;;;;5035591;28;20294;-72
2024/04/05 11:42:42;;;;;;;4.63;2.53;;;21.10;99.90;;;;;;5033280;28;20293;-75
2024/04/05 11:45:09;;;;;;;3.00;1.92;;;21.10;99.90;;;;;;5057067;28;20219;-78
2024/04/05 11:47:36;;;;;;;3.70;2.20;;;21.20;99.90;;;;;;5035531;28;20480;-74
2024/04/05 11:50:03;;;;;;;4.22;2.20;;;21.50;99.90;;;;;;5032273;28;20313;-73
2024/04/05 11:52:31;;;;;;;5.07;2.38;;;21.70;99.90;;;;;;5033665;28;20241;-76
2024/04/05 11:54:59;;;;;;;4.88;1.98;;;21.80;99.90;;;;;;5036650;28;20202;-76
2024/04/05 11:57:25;;;;;;;3.63;2.13;;;21.80;99.90;;;;;;5038100;28;20230;-73
2024/04/05 11:59:51;;;;;;;3.00;2.30;;;21.90;99.90;;;;;;5038455;28;20318;-74
2024/04/05 12:02:19;;;;;;;4.82;2.50;;;21.80;99.90;;;;;;5033083;28;20302;-74
2024/04/05 12:04:46;;;;;;;4.07;2.30;;;21.60;99.90;;;;;;5035861;28;20219;-74
2024/04/05 12:07:14;;;;;;;3.80;2.38;;;21.60;99.90;;;;;;5032539;28;20321;-73
2024/04/05 12:09:40;;;;;;;4.70;1.90;;;21.80;99.90;;;;;;5034941;28;20309;-75
2024/04/05 12:12:09;;;;;;;4.40;2.28;;;21.90;99.90;;;;;;5038920;28;20222;-75
2024/04/05 12:14:35;;;;;;;3.22;2.00;;;22.20;99.90;;;;;;5035027;28;20219;-73
2024/04/05 12:17:03;;;;;;;5.60;2.25;;;22.60;99.90;;;;;;5036100;28;20242;-74
2024/04/05 12:19:29;;;;;;;2.22;1.88;;;22.70;99.90;;;;;;5038918;28;20286;-73
2024/04/05 12:21:56;;;;;;;2.53;1.70;;;22.50;99.90;;;;;;5032670;28;20289;-73
2024/04/05 12:24:22;;;;;;;3.53;1.92;;;22.50;99.90;;;;;;5016762;28;20310;-72
2024/04/05 12:26:50;;;;;;;3.60;2.08;;;22.50;99.90;;;;;;5011309;28;20223;-76
2024/04/05 12:29:17;;;;;;;3.28;1.77;;;22.50;99.90;;;;;;5020176;28;20285;-76
2024/04/05 12:31:44;;;;;;;3.22;1.83;;;22.70;99.90;;;;;;5019141;28;20226;-75
2024/04/05 12:34:10;;;;;;;6.45;2.42;;;22.60;99.90;;;;;;5035791;28;20224;-74
2024/04/05 12:36:39;;;;;;;7.22;2.28;;;22.40;99.90;;;;;;5035545;28;20264;-75
2024/04/05 12:39:10;;;;;;;2.60;1.60;;;22.60;99.90;;;;;;5034966;28;20226;-74
2024/04/05 12:41:37;;;;;;;4.70;1.80;;;22.90;99.90;;;;;;5030937;28;20223;-75
2024/04/05 12:44:03;;;;;;;3.22;1.60;;;23.10;99.90;;;;;;5044549;28;20288;-73
2024/04/05 12:46:31;;;;;;;2.80;1.50;;;23.20;99.90;;;;;;5028664;28;20287;-74